sensor_id;sensor_type;location;lat;lon;timestamp;P1;durP1;ratioP1;P2;durP2;ratioP2
74963;SDS011;63521;51.900;4.748;2022-12-29T00:01:39;2.00;;;1.35;;
74963;SDS011;63521;51.900;4.748;2022-12-29T00:04:04;1.52;;;1.27;;
74963;SDS011;63521;51.900;4.748;2022-12-29T00:06:30;1.38;;;1.20;;
74963;SDS011;63521;51.900;4.748;2022-12-29T00:08:56;2.58;;;1.30;;
74963;SDS011;63521;51.900;4.748;2022-12-29T00:11:22;2.25;;;1.35;;
74963;SDS011;63521;51.900;4.748;2022-12-29T00:13:49;1.90;;;1.33;;
74963;SDS011;63521;51.900;4.748;2022-12-29T00:16:34;2.35;;;1.30;;
74963;SDS011;63521;51.900;4.748;2022-12-29T00:19:00;2.00;;;1.20;;
74963;SDS011;63521;51.900;4.748;2022-12-29T00:21:26;1.17;;;1.08;;
74963;SDS011;63521;51.900;4.748;2022-12-29T00:24:17;2.03;;;1.42;;
74963;SDS011;63521;51.900;4.748;2022-12-29T00:26:53;1.42;;;1.23;;
74963;SDS011;63521;51.900;4.748;2022-12-29T00:29:39;1.70;;;1.20;;
74963;SDS011;63521;51.900;4.748;2022-12-29T00:32:23;1.35;;;1.20;;
74963;SDS011;63521;51.900;4.748;2022-12-29T00:35:08;1.63;;;1.20;;
74963;SDS011;63521;51.900;4.748;2022-12-29T00:37:36;1.73;;;1.10;;
74963;SDS011;63521;51.900;4.748;2022-12-29T00:40:22;2.17;;;1.10;;
74963;SDS011;63521;51.900;4.748;2022-12-29T00:43:06;1.45;;;1.10;;
74963;SDS011;63521;51.900;4.748;2022-12-29T00:45:49;2.08;;;1.20;;
74963;SDS011;63521;51.900;4.748;2022-12-29T00:48:15;1.48;;;1.00;;
74963;SDS011;63521;51.900;4.748;2022-12-29T00:50:40;1.27;;;1.08;;
74963;SDS011;63521;51.900;4.748;2022-12-29T00:53:05;1.33;;;0.95;;
74963;SDS011;63521;51.900;4.748;2022-12-29T00:55:31;1.38;;;1.10;;
74963;SDS011;63521;51.900;4.748;2022-12-29T00:57:56;1.40;;;1.17;;
74963;SDS011;63521;51.900;4.748;2022-12-29T01:00:22;0.93;;;0.93;;
74963;SDS011;63521;51.900;4.748;2022-12-29T01:02:47;1.00;;;0.88;;
74963;SDS011;63521;51.900;4.748;2022-12-29T01:05:12;1.45;;;0.90;;
74963;SDS011;63521;51.900;4.748;2022-12-29T01:07:38;1.10;;;0.93;;
74963;SDS011;63521;51.900;4.748;2022-12-29T01:10:03;1.05;;;0.90;;
74963;SDS011;63521;51.900;4.748;2022-12-29T01:12:35;1.40;;;1.10;;
74963;SDS011;63521;51.900;4.748;2022-12-29T01:15:08;1.20;;;1.02;;
74963;SDS011;63521;51.900;4.748;2022-12-29T01:17:34;1.42;;;1.08;;
74963;SDS011;63521;51.900;4.748;2022-12-29T01:19:59;0.80;;;0.80;;
74963;SDS011;63521;51.900;4.748;2022-12-29T01:22:25;1.83;;;0.93;;
74963;SDS011;63521;51.900;4.748;2022-12-29T01:24:51;0.80;;;0.80;;
74963;SDS011;63521;51.900;4.748;2022-12-29T01:27:16;2.03;;;1.00;;
74963;SDS011;63521;51.900;4.748;2022-12-29T01:29:41;1.50;;;1.00;;
74963;SDS011;63521;51.900;4.748;2022-12-29T01:32:07;1.13;;;0.90;;
74963;SDS011;63521;51.900;4.748;2022-12-29T01:34:32;0.80;;;0.77;;
74963;SDS011;63521;51.900;4.748;2022-12-29T01:36:57;1.23;;;1.02;;
74963;SDS011;63521;51.900;4.748;2022-12-29T01:39:23;1.52;;;1.13;;
74963;SDS011;63521;51.900;4.748;2022-12-29T01:41:48;1.00;;;0.95;;
74963;SDS011;63521;51.900;4.748;2022-12-29T01:47:19;1.98;;;0.95;;
74963;SDS011;63521;51.900;4.748;2022-12-29T01:49:56;1.13;;;1.00;;
74963;SDS011;63521;51.900;4.748;2022-12-29T01:52:24;1.65;;;1.02;;
74963;SDS011;63521;51.900;4.748;2022-12-29T01:54:52;0.93;;;0.82;;
74963;SDS011;63521;51.900;4.748;2022-12-29T01:57:25;0.98;;;0.85;;
74963;SDS011;63521;51.900;4.748;2022-12-29T02:00:04;1.27;;;0.90;;
74963;SDS011;63521;51.900;4.748;2022-12-29T02:02:35;0.82;;;0.77;;
74963;SDS011;63521;51.900;4.748;2022-12-29T02:05:03;1.33;;;1.05;;
74963;SDS011;63521;51.900;4.748;2022-12-29T02:07:32;3.33;;;1.08;;
74963;SDS011;63521;51.900;4.748;2022-12-29T02:09:57;0.88;;;0.88;;
74963;SDS011;63521;51.900;4.748;2022-12-29T02:12:23;0.80;;;0.80;;
74963;SDS011;63521;51.900;4.748;2022-12-29T02:14:49;1.85;;;1.00;;
74963;SDS011;63521;51.900;4.748;2022-12-29T02:31:19;0.70;;;0.70;;
74963;SDS011;63521;51.900;4.748;2022-12-29T02:33:54;0.60;;;0.60;;
74963;SDS011;63521;51.900;4.748;2022-12-29T02:36:31;1.27;;;0.82;;
74963;SDS011;63521;51.900;4.748;2022-12-29T02:39:07;0.80;;;0.65;;
74963;SDS011;63521;51.900;4.748;2022-12-29T02:41:42;1.02;;;0.70;;
74963;SDS011;63521;51.900;4.748;2022-12-29T02:46:51;0.60;;;0.60;;
74963;SDS011;63521;51.900;4.748;2022-12-29T02:49:30;0.55;;;0.55;;
74963;SDS011;63521;51.900;4.748;2022-12-29T02:52:06;1.05;;;0.45;;
74963;SDS011;63521;51.900;4.748;2022-12-29T02:54:34;0.80;;;0.47;;
74963;SDS011;63521;51.900;4.748;2022-12-29T03:16:20;2.63;;;0.85;;
74963;SDS011;63521;51.900;4.748;2022-12-29T03:18:51;0.55;;;0.50;;
74963;SDS011;63521;51.900;4.748;2022-12-29T03:21:27;1.65;;;0.50;;
74963;SDS011;63521;51.900;4.748;2022-12-29T03:24:19;1.33;;;0.68;;
74963;SDS011;63521;51.900;4.748;2022-12-29T03:26:47;1.48;;;0.65;;
74963;SDS011;63521;51.900;4.748;2022-12-29T03:29:14;0.50;;;0.50;;
74963;SDS011;63521;51.900;4.748;2022-12-29T03:31:40;0.40;;;0.40;;
74963;SDS011;63521;51.900;4.748;2022-12-29T03:34:06;0.63;;;0.50;;
74963;SDS011;63521;51.900;4.748;2022-12-29T03:36:36;2.05;;;0.38;;
74963;SDS011;63521;51.900;4.748;2022-12-29T03:39:08;0.65;;;0.60;;
74963;SDS011;63521;51.900;4.748;2022-12-29T03:41:36;0.40;;;0.40;;
74963;SDS011;63521;51.900;4.748;2022-12-29T03:44:05;1.48;;;0.52;;
74963;SDS011;63521;51.900;4.748;2022-12-29T03:46:31;0.50;;;0.50;;
74963;SDS011;63521;51.900;4.748;2022-12-29T03:48:56;0.98;;;0.50;;
74963;SDS011;63521;51.900;4.748;2022-12-29T03:51:22;0.40;;;0.32;;
74963;SDS011;63521;51.900;4.748;2022-12-29T03:53:47;1.42;;;0.50;;
74963;SDS011;63521;51.900;4.748;2022-12-29T03:56:13;1.30;;;0.50;;
74963;SDS011;63521;51.900;4.748;2022-12-29T03:58:38;1.67;;;0.70;;
74963;SDS011;63521;51.900;4.748;2022-12-29T04:01:04;1.00;;;0.40;;
74963;SDS011;63521;51.900;4.748;2022-12-29T04:03:29;2.58;;;0.60;;
74963;SDS011;63521;51.900;4.748;2022-12-29T04:05:55;0.90;;;0.55;;
74963;SDS011;63521;51.900;4.748;2022-12-29T04:08:20;1.58;;;0.50;;
74963;SDS011;63521;51.900;4.748;2022-12-29T04:10:45;1.35;;;0.55;;
74963;SDS011;63521;51.900;4.748;2022-12-29T04:13:11;1.00;;;0.50;;
74963;SDS011;63521;51.900;4.748;2022-12-29T04:15:36;2.15;;;0.52;;
74963;SDS011;63521;51.900;4.748;2022-12-29T04:18:01;0.65;;;0.60;;
74963;SDS011;63521;51.900;4.748;2022-12-29T04:20:27;1.88;;;0.60;;
74963;SDS011;63521;51.900;4.748;2022-12-29T04:23:11;1.75;;;0.55;;
74963;SDS011;63521;51.900;4.748;2022-12-29T04:25:36;1.83;;;0.57;;
74963;SDS011;63521;51.900;4.748;2022-12-29T04:28:02;2.65;;;0.60;;
74963;SDS011;63521;51.900;4.748;2022-12-29T04:30:27;0.40;;;0.40;;
74963;SDS011;63521;51.900;4.748;2022-12-29T04:32:52;1.10;;;0.50;;
74963;SDS011;63521;51.900;4.748;2022-12-29T04:35:18;3.88;;;0.77;;
74963;SDS011;63521;51.900;4.748;2022-12-29T04:37:43;0.52;;;0.47;;
74963;SDS011;63521;51.900;4.748;2022-12-29T04:40:09;2.80;;;0.90;;
74963;SDS011;63521;51.900;4.748;2022-12-29T04:42:35;2.47;;;0.35;;
74963;SDS011;63521;51.900;4.748;2022-12-29T04:45:00;0.85;;;0.43;;
74963;SDS011;63521;51.900;4.748;2022-12-29T04:47:25;1.75;;;0.50;;
74963;SDS011;63521;51.900;4.748;2022-12-29T04:49:51;1.20;;;0.40;;
74963;SDS011;63521;51.900;4.748;2022-12-29T04:52:16;2.00;;;0.60;;
74963;SDS011;63521;51.900;4.748;2022-12-29T04:54:41;1.45;;;0.40;;
74963;SDS011;63521;51.900;4.748;2022-12-29T04:57:07;0.88;;;0.40;;
74963;SDS011;63521;51.900;4.748;2022-12-29T04:59:32;1.55;;;0.70;;
74963;SDS011;63521;51.900;4.748;2022-12-29T05:01:57;0.88;;;0.38;;
74963;SDS011;63521;51.900;4.748;2022-12-29T05:04:23;4.32;;;0.80;;
74963;SDS011;63521;51.900;4.748;2022-12-29T05:06:48;2.53;;;0.90;;
74963;SDS011;63521;51.900;4.748;2022-12-29T05:09:14;0.98;;;0.63;;
74963;SDS011;63521;51.900;4.748;2022-12-29T05:11:39;1.67;;;0.50;;
74963;SDS011;63521;51.900;4.748;2022-12-29T05:14:04;3.13;;;0.63;;
74963;SDS011;63521;51.900;4.748;2022-12-29T05:16:30;1.50;;;0.40;;
74963;SDS011;63521;51.900;4.748;2022-12-29T05:18:55;2.40;;;0.60;;
74963;SDS011;63521;51.900;4.748;2022-12-29T05:21:21;1.73;;;0.52;;
74963;SDS011;63521;51.900;4.748;2022-12-29T05:23:46;2.90;;;0.75;;
74963;SDS011;63521;51.900;4.748;2022-12-29T05:26:12;1.35;;;0.50;;
74963;SDS011;63521;51.900;4.748;2022-12-29T05:28:37;2.78;;;0.95;;
74963;SDS011;63521;51.900;4.748;2022-12-29T05:31:02;3.28;;;0.65;;
74963;SDS011;63521;51.900;4.748;2022-12-29T05:33:28;0.55;;;0.25;;
74963;SDS011;63521;51.900;4.748;2022-12-29T05:35:54;2.60;;;0.60;;
74963;SDS011;63521;51.900;4.748;2022-12-29T05:38:19;4.20;;;0.90;;
74963;SDS011;63521;51.900;4.748;2022-12-29T05:40:44;2.08;;;0.60;;
74963;SDS011;63521;51.900;4.748;2022-12-29T05:43:10;1.25;;;0.40;;
74963;SDS011;63521;51.900;4.748;2022-12-29T05:45:35;2.28;;;0.60;;
74963;SDS011;63521;51.900;4.748;2022-12-29T05:48:01;2.47;;;0.70;;
74963;SDS011;63521;51.900;4.748;2022-12-29T05:50:26;1.38;;;0.50;;
74963;SDS011;63521;51.900;4.748;2022-12-29T05:52:52;1.50;;;0.55;;
74963;SDS011;63521;51.900;4.748;2022-12-29T05:55:17;3.25;;;0.75;;
74963;SDS011;63521;51.900;4.748;2022-12-29T05:57:43;1.60;;;0.40;;
74963;SDS011;63521;51.900;4.748;2022-12-29T06:00:08;1.90;;;0.60;;
74963;SDS011;63521;51.900;4.748;2022-12-29T06:02:34;4.65;;;0.77;;
74963;SDS011;63521;51.900;4.748;2022-12-29T06:04:59;3.72;;;0.80;;
74963;SDS011;63521;51.900;4.748;2022-12-29T06:07:25;3.28;;;0.55;;
74963;SDS011;63521;51.900;4.748;2022-12-29T06:09:50;1.92;;;0.85;;
74963;SDS011;63521;51.900;4.748;2022-12-29T06:12:15;1.67;;;0.65;;
74963;SDS011;63521;51.900;4.748;2022-12-29T06:14:41;2.28;;;0.60;;
74963;SDS011;63521;51.900;4.748;2022-12-29T06:17:07;3.08;;;1.13;;
74963;SDS011;63521;51.900;4.748;2022-12-29T06:19:32;1.73;;;0.47;;
74963;SDS011;63521;51.900;4.748;2022-12-29T06:21:57;3.50;;;0.70;;
74963;SDS011;63521;51.900;4.748;2022-12-29T06:24:23;2.53;;;0.65;;
74963;SDS011;63521;51.900;4.748;2022-12-29T06:26:48;3.30;;;0.80;;
74963;SDS011;63521;51.900;4.748;2022-12-29T06:29:14;1.38;;;0.73;;
74963;SDS011;63521;51.900;4.748;2022-12-29T06:31:43;2.60;;;0.55;;
74963;SDS011;63521;51.900;4.748;2022-12-29T06:34:11;3.17;;;0.65;;
74963;SDS011;63521;51.900;4.748;2022-12-29T06:36:37;2.67;;;0.65;;
74963;SDS011;63521;51.900;4.748;2022-12-29T07:01:01;2.97;;;0.63;;
74963;SDS011;63521;51.900;4.748;2022-12-29T07:03:26;2.67;;;0.60;;
74963;SDS011;63521;51.900;4.748;2022-12-29T07:05:52;6.50;;;1.42;;
74963;SDS011;63521;51.900;4.748;2022-12-29T07:08:17;1.50;;;0.60;;
74963;SDS011;63521;51.900;4.748;2022-12-29T07:10:42;3.15;;;0.70;;
74963;SDS011;63521;51.900;4.748;2022-12-29T07:13:08;2.80;;;0.70;;
74963;SDS011;63521;51.900;4.748;2022-12-29T07:15:34;2.35;;;0.45;;
74963;SDS011;63521;51.900;4.748;2022-12-29T07:18:00;1.65;;;0.55;;
74963;SDS011;63521;51.900;4.748;2022-12-29T07:20:26;4.38;;;0.80;;
74963;SDS011;63521;51.900;4.748;2022-12-29T07:22:51;1.83;;;0.60;;
74963;SDS011;63521;51.900;4.748;2022-12-29T07:25:16;1.15;;;0.60;;
74963;SDS011;63521;51.900;4.748;2022-12-29T07:27:42;3.95;;;0.80;;
74963;SDS011;63521;51.900;4.748;2022-12-29T07:30:07;2.72;;;0.75;;
74963;SDS011;63521;51.900;4.748;2022-12-29T07:32:33;3.20;;;0.60;;
74963;SDS011;63521;51.900;4.748;2022-12-29T07:34:59;2.00;;;0.60;;
74963;SDS011;63521;51.900;4.748;2022-12-29T07:37:25;4.88;;;0.80;;
74963;SDS011;63521;51.900;4.748;2022-12-29T07:39:50;2.33;;;1.13;;
74963;SDS011;63521;51.900;4.748;2022-12-29T07:42:15;0.95;;;0.50;;
74963;SDS011;63521;51.900;4.748;2022-12-29T07:44:41;2.17;;;0.52;;
74963;SDS011;63521;51.900;4.748;2022-12-29T07:47:06;4.20;;;0.70;;
74963;SDS011;63521;51.900;4.748;2022-12-29T07:49:32;2.45;;;0.73;;
74963;SDS011;63521;51.900;4.748;2022-12-29T07:51:57;5.70;;;0.93;;
74963;SDS011;63521;51.900;4.748;2022-12-29T07:54:22;2.65;;;0.68;;
74963;SDS011;63521;51.900;4.748;2022-12-29T07:56:48;2.67;;;0.60;;
74963;SDS011;63521;51.900;4.748;2022-12-29T07:59:14;3.38;;;0.60;;
74963;SDS011;63521;51.900;4.748;2022-12-29T08:01:39;1.77;;;0.68;;
74963;SDS011;63521;51.900;4.748;2022-12-29T08:04:04;2.17;;;0.70;;
74963;SDS011;63521;51.900;4.748;2022-12-29T08:06:30;6.82;;;0.85;;
74963;SDS011;63521;51.900;4.748;2022-12-29T08:08:56;3.10;;;0.68;;
74963;SDS011;63521;51.900;4.748;2022-12-29T08:11:21;3.63;;;0.80;;
74963;SDS011;63521;51.900;4.748;2022-12-29T08:13:47;2.58;;;0.73;;
74963;SDS011;63521;51.900;4.748;2022-12-29T08:16:12;3.28;;;0.95;;
74963;SDS011;63521;51.900;4.748;2022-12-29T08:18:38;2.58;;;0.50;;
74963;SDS011;63521;51.900;4.748;2022-12-29T08:21:03;3.90;;;0.90;;
74963;SDS011;63521;51.900;4.748;2022-12-29T08:23:29;1.98;;;0.82;;
74963;SDS011;63521;51.900;4.748;2022-12-29T08:25:59;3.95;;;0.77;;
74963;SDS011;63521;51.900;4.748;2022-12-29T08:28:25;2.95;;;0.70;;
74963;SDS011;63521;51.900;4.748;2022-12-29T08:30:50;3.67;;;0.90;;
74963;SDS011;63521;51.900;4.748;2022-12-29T08:33:15;3.20;;;0.82;;
74963;SDS011;63521;51.900;4.748;2022-12-29T08:35:41;1.92;;;0.80;;
74963;SDS011;63521;51.900;4.748;2022-12-29T08:38:06;3.03;;;0.77;;
74963;SDS011;63521;51.900;4.748;2022-12-29T08:40:33;2.38;;;0.70;;
74963;SDS011;63521;51.900;4.748;2022-12-29T08:42:58;3.83;;;0.85;;
74963;SDS011;63521;51.900;4.748;2022-12-29T08:45:23;1.98;;;1.05;;
74963;SDS011;63521;51.900;4.748;2022-12-29T08:47:49;4.05;;;0.80;;
74963;SDS011;63521;51.900;4.748;2022-12-29T08:50:14;2.08;;;0.90;;
74963;SDS011;63521;51.900;4.748;2022-12-29T08:52:39;4.32;;;0.90;;
74963;SDS011;63521;51.900;4.748;2022-12-29T08:55:05;3.45;;;0.80;;
74963;SDS011;63521;51.900;4.748;2022-12-29T08:57:30;3.60;;;0.82;;
74963;SDS011;63521;51.900;4.748;2022-12-29T08:59:56;4.47;;;1.00;;
74963;SDS011;63521;51.900;4.748;2022-12-29T09:02:21;2.28;;;0.55;;
74963;SDS011;63521;51.900;4.748;2022-12-29T09:04:47;3.85;;;0.80;;
74963;SDS011;63521;51.900;4.748;2022-12-29T09:07:12;3.70;;;0.80;;
74963;SDS011;63521;51.900;4.748;2022-12-29T09:09:37;1.25;;;0.60;;
74963;SDS011;63521;51.900;4.748;2022-12-29T09:12:03;4.68;;;1.00;;
74963;SDS011;63521;51.900;4.748;2022-12-29T09:14:28;3.53;;;0.88;;
74963;SDS011;63521;51.900;4.748;2022-12-29T09:16:54;2.47;;;0.63;;
74963;SDS011;63521;51.900;4.748;2022-12-29T09:19:38;5.78;;;0.88;;
74963;SDS011;63521;51.900;4.748;2022-12-29T09:22:03;6.55;;;1.30;;
74963;SDS011;63521;51.900;4.748;2022-12-29T09:24:28;4.95;;;0.90;;
74963;SDS011;63521;51.900;4.748;2022-12-29T09:26:54;4.38;;;0.65;;
74963;SDS011;63521;51.900;4.748;2022-12-29T09:29:19;5.10;;;0.90;;
74963;SDS011;63521;51.900;4.748;2022-12-29T09:31:44;1.30;;;0.60;;
74963;SDS011;63521;51.900;4.748;2022-12-29T09:34:10;3.83;;;0.95;;
74963;SDS011;63521;51.900;4.748;2022-12-29T09:36:35;3.75;;;0.70;;
74963;SDS011;63521;51.900;4.748;2022-12-29T09:39:01;3.83;;;0.93;;
74963;SDS011;63521;51.900;4.748;2022-12-29T09:41:29;3.22;;;0.80;;
74963;SDS011;63521;51.900;4.748;2022-12-29T09:44:13;3.10;;;0.65;;
74963;SDS011;63521;51.900;4.748;2022-12-29T09:46:44;1.40;;;0.70;;
74963;SDS011;63521;51.900;4.748;2022-12-29T09:52:11;1.30;;;0.57;;
74963;SDS011;63521;51.900;4.748;2022-12-29T09:54:48;2.22;;;0.57;;
74963;SDS011;63521;51.900;4.748;2022-12-29T09:57:26;2.50;;;0.60;;
74963;SDS011;63521;51.900;4.748;2022-12-29T10:00:14;2.97;;;0.80;;
74963;SDS011;63521;51.900;4.748;2022-12-29T10:10:59;2.53;;;0.65;;
74963;SDS011;63521;51.900;4.748;2022-12-29T10:13:36;0.98;;;0.68;;
74963;SDS011;63521;51.900;4.748;2022-12-29T10:16:34;2.78;;;0.65;;
74963;SDS011;63521;51.900;4.748;2022-12-29T10:19:16;4.07;;;0.73;;
74963;SDS011;63521;51.900;4.748;2022-12-29T10:24:23;3.05;;;1.00;;
74963;SDS011;63521;51.900;4.748;2022-12-29T10:26:51;2.63;;;0.77;;
74963;SDS011;63521;51.900;4.748;2022-12-29T10:29:18;3.08;;;0.73;;
74963;SDS011;63521;51.900;4.748;2022-12-29T10:31:58;1.77;;;0.80;;
74963;SDS011;63521;51.900;4.748;2022-12-29T10:34:39;2.17;;;0.75;;
74963;SDS011;63521;51.900;4.748;2022-12-29T10:39:45;3.97;;;0.88;;
74963;SDS011;63521;51.900;4.748;2022-12-29T10:42:20;2.47;;;0.70;;
74963;SDS011;63521;51.900;4.748;2022-12-29T10:44:46;2.50;;;0.90;;
74963;SDS011;63521;51.900;4.748;2022-12-29T10:47:14;5.18;;;0.80;;
74963;SDS011;63521;51.900;4.748;2022-12-29T10:49:42;9.27;;;1.30;;
74963;SDS011;63521;51.900;4.748;2022-12-29T10:52:08;2.80;;;1.10;;
74963;SDS011;63521;51.900;4.748;2022-12-29T10:54:54;3.38;;;1.15;;
74963;SDS011;63521;51.900;4.748;2022-12-29T11:00:00;3.47;;;0.82;;
74963;SDS011;63521;51.900;4.748;2022-12-29T11:08:01;4.57;;;1.10;;
74963;SDS011;63521;51.900;4.748;2022-12-29T11:10:29;5.32;;;1.33;;
74963;SDS011;63521;51.900;4.748;2022-12-29T11:13:02;2.85;;;1.25;;
74963;SDS011;63521;51.900;4.748;2022-12-29T11:15:39;2.28;;;0.80;;
74963;SDS011;63521;51.900;4.748;2022-12-29T11:18:07;5.13;;;0.98;;
74963;SDS011;63521;51.900;4.748;2022-12-29T11:20:43;2.45;;;0.93;;
74963;SDS011;63521;51.900;4.748;2022-12-29T11:23:22;4.45;;;0.88;;
74963;SDS011;63521;51.900;4.748;2022-12-29T11:26:05;4.18;;;1.42;;
74963;SDS011;63521;51.900;4.748;2022-12-29T11:28:38;1.75;;;0.82;;
74963;SDS011;63521;51.900;4.748;2022-12-29T11:31:08;2.20;;;0.93;;
74963;SDS011;63521;51.900;4.748;2022-12-29T11:33:34;2.70;;;0.90;;
74963;SDS011;63521;51.900;4.748;2022-12-29T11:36:02;4.63;;;1.10;;
74963;SDS011;63521;51.900;4.748;2022-12-29T11:38:34;4.35;;;1.10;;
74963;SDS011;63521;51.900;4.748;2022-12-29T11:41:04;4.63;;;0.98;;
74963;SDS011;63521;51.900;4.748;2022-12-29T11:43:31;2.97;;;1.10;;
74963;SDS011;63521;51.900;4.748;2022-12-29T11:45:59;3.25;;;1.10;;
74963;SDS011;63521;51.900;4.748;2022-12-29T11:48:29;4.85;;;1.00;;
74963;SDS011;63521;51.900;4.748;2022-12-29T11:50:57;3.88;;;0.98;;
74963;SDS011;63521;51.900;4.748;2022-12-29T11:53:26;3.72;;;1.20;;
74963;SDS011;63521;51.900;4.748;2022-12-29T11:55:53;4.90;;;1.23;;
74963;SDS011;63521;51.900;4.748;2022-12-29T11:58:27;3.00;;;1.08;;
74963;SDS011;63521;51.900;4.748;2022-12-29T12:00:53;5.60;;;1.35;;
74963;SDS011;63521;51.900;4.748;2022-12-29T12:03:21;2.95;;;0.90;;
74963;SDS011;63521;51.900;4.748;2022-12-29T12:05:55;5.00;;;1.40;;
74963;SDS011;63521;51.900;4.748;2022-12-29T12:08:28;3.53;;;1.10;;
74963;SDS011;63521;51.900;4.748;2022-12-29T12:13:43;3.28;;;0.90;;
74963;SDS011;63521;51.900;4.748;2022-12-29T12:16:27;4.65;;;1.42;;
74963;SDS011;63521;51.900;4.748;2022-12-29T12:21:43;2.60;;;1.00;;
74963;SDS011;63521;51.900;4.748;2022-12-29T12:24:19;3.88;;;0.98;;
74963;SDS011;63521;51.900;4.748;2022-12-29T12:26:56;3.05;;;1.00;;
74963;SDS011;63521;51.900;4.748;2022-12-29T12:29:32;2.95;;;1.10;;
74963;SDS011;63521;51.900;4.748;2022-12-29T12:32:02;5.15;;;1.27;;
74963;SDS011;63521;51.900;4.748;2022-12-29T12:34:36;4.35;;;0.95;;
74963;SDS011;63521;51.900;4.748;2022-12-29T12:51:10;3.85;;;0.70;;
74963;SDS011;63521;51.900;4.748;2022-12-29T12:54:12;4.90;;;0.85;;
74963;SDS011;63521;51.900;4.748;2022-12-29T12:57:02;3.15;;;0.90;;
74963;SDS011;63521;51.900;4.748;2022-12-29T13:07:52;3.22;;;1.10;;
74963;SDS011;63521;51.900;4.748;2022-12-29T13:10:30;4.22;;;1.30;;
74963;SDS011;63521;51.900;4.748;2022-12-29T13:13:32;3.72;;;1.20;;
74963;SDS011;63521;51.900;4.748;2022-12-29T13:16:38;4.03;;;1.20;;
74963;SDS011;63521;51.900;4.748;2022-12-29T13:27:12;2.72;;;0.95;;
74963;SDS011;63521;51.900;4.748;2022-12-29T13:30:21;6.28;;;1.00;;
74963;SDS011;63521;51.900;4.748;2022-12-29T13:32:35;4.25;;;0.93;;
74963;SDS011;63521;51.900;4.748;2022-12-29T13:38:19;3.20;;;1.05;;
74963;SDS011;63521;51.900;4.748;2022-12-29T13:40:49;2.20;;;0.90;;
74963;SDS011;63521;51.900;4.748;2022-12-29T13:43:17;3.08;;;0.88;;
74963;SDS011;63521;51.900;4.748;2022-12-29T13:45:43;2.35;;;0.80;;
74963;SDS011;63521;51.900;4.748;2022-12-29T13:50:40;2.35;;;0.90;;
74963;SDS011;63521;51.900;4.748;2022-12-29T13:55:49;1.90;;;0.80;;
74963;SDS011;63521;51.900;4.748;2022-12-29T13:58:20;2.13;;;0.82;;
74963;SDS011;63521;51.900;4.748;2022-12-29T14:04:09;2.00;;;0.70;;
74963;SDS011;63521;51.900;4.748;2022-12-29T14:06:37;2.28;;;0.73;;
74963;SDS011;63521;51.900;4.748;2022-12-29T14:09:06;2.35;;;1.33;;
74963;SDS011;63521;51.900;4.748;2022-12-29T14:11:51;4.60;;;0.77;;
74963;SDS011;63521;51.900;4.748;2022-12-29T14:14:18;1.83;;;0.80;;
74963;SDS011;63521;51.900;4.748;2022-12-29T14:16:46;2.03;;;0.80;;
74963;SDS011;63521;51.900;4.748;2022-12-29T14:19:16;2.30;;;0.80;;
74963;SDS011;63521;51.900;4.748;2022-12-29T14:21:55;5.15;;;0.98;;
74963;SDS011;63521;51.900;4.748;2022-12-29T14:27:52;1.58;;;0.80;;
74963;SDS011;63521;51.900;4.748;2022-12-29T14:29:46;1.60;;;0.70;;
74963;SDS011;63521;51.900;4.748;2022-12-29T14:32:35;3.45;;;0.77;;
74963;SDS011;63521;51.900;4.748;2022-12-29T14:34:58;1.83;;;0.73;;
74963;SDS011;63521;51.900;4.748;2022-12-29T14:37:34;3.55;;;0.73;;
74963;SDS011;63521;51.900;4.748;2022-12-29T14:40:05;2.83;;;0.75;;
74963;SDS011;63521;51.900;4.748;2022-12-29T14:42:32;2.58;;;0.70;;
74963;SDS011;63521;51.900;4.748;2022-12-29T14:45:00;2.13;;;0.85;;
74963;SDS011;63521;51.900;4.748;2022-12-29T14:52:58;5.38;;;0.90;;
74963;SDS011;63521;51.900;4.748;2022-12-29T14:55:41;1.92;;;0.93;;
74963;SDS011;63521;51.900;4.748;2022-12-29T15:01:13;3.63;;;1.20;;
74963;SDS011;63521;51.900;4.748;2022-12-29T15:03:48;1.52;;;0.70;;
74963;SDS011;63521;51.900;4.748;2022-12-29T15:06:15;2.95;;;1.05;;
74963;SDS011;63521;51.900;4.748;2022-12-29T15:11:13;3.03;;;0.90;;
74963;SDS011;63521;51.900;4.748;2022-12-29T15:13:41;3.15;;;0.90;;
74963;SDS011;63521;51.900;4.748;2022-12-29T15:19:01;2.88;;;0.80;;
74963;SDS011;63521;51.900;4.748;2022-12-29T15:21:30;2.58;;;0.73;;
74963;SDS011;63521;51.900;4.748;2022-12-29T15:23:57;2.90;;;0.77;;
74963;SDS011;63521;51.900;4.748;2022-12-29T15:26:23;2.95;;;1.40;;
74963;SDS011;63521;51.900;4.748;2022-12-29T15:29:01;2.80;;;0.70;;
74963;SDS011;63521;51.900;4.748;2022-12-29T15:31:26;2.70;;;0.80;;
74963;SDS011;63521;51.900;4.748;2022-12-29T15:33:54;2.53;;;0.70;;
74963;SDS011;63521;51.900;4.748;2022-12-29T15:36:27;1.48;;;0.80;;
74963;SDS011;63521;51.900;4.748;2022-12-29T15:38:53;1.23;;;0.70;;
74963;SDS011;63521;51.900;4.748;2022-12-29T15:41:26;1.15;;;0.50;;
74963;SDS011;63521;51.900;4.748;2022-12-29T15:44:00;2.67;;;0.80;;
74963;SDS011;63521;51.900;4.748;2022-12-29T15:46:31;1.77;;;0.82;;
74963;SDS011;63521;51.900;4.748;2022-12-29T15:48:57;2.47;;;0.80;;
74963;SDS011;63521;51.900;4.748;2022-12-29T15:51:29;1.42;;;0.55;;
74963;SDS011;63521;51.900;4.748;2022-12-29T15:53:56;0.98;;;0.60;;
74963;SDS011;63521;51.900;4.748;2022-12-29T15:56:22;2.85;;;0.70;;
74963;SDS011;63521;51.900;4.748;2022-12-29T15:58:48;2.38;;;0.50;;
74963;SDS011;63521;51.900;4.748;2022-12-29T16:01:20;2.03;;;0.70;;
74963;SDS011;63521;51.900;4.748;2022-12-29T16:03:50;1.80;;;0.65;;
74963;SDS011;63521;51.900;4.748;2022-12-29T16:09:05;1.25;;;0.70;;
74963;SDS011;63521;51.900;4.748;2022-12-29T16:11:42;2.20;;;0.80;;
74963;SDS011;63521;51.900;4.748;2022-12-29T16:16:59;2.03;;;0.55;;
74963;SDS011;63521;51.900;4.748;2022-12-29T16:19:32;2.33;;;0.70;;
74963;SDS011;63521;51.900;4.748;2022-12-29T16:21:59;3.10;;;0.75;;
74963;SDS011;63521;51.900;4.748;2022-12-29T16:24:26;2.15;;;0.60;;
74963;SDS011;63521;51.900;4.748;2022-12-29T16:27:07;3.60;;;0.50;;
74963;SDS011;63521;51.900;4.748;2022-12-29T16:29:34;1.75;;;0.70;;
74963;SDS011;63521;51.900;4.748;2022-12-29T16:32:00;1.63;;;0.55;;
74963;SDS011;63521;51.900;4.748;2022-12-29T16:37:01;3.28;;;0.68;;
74963;SDS011;63521;51.900;4.748;2022-12-29T16:39:29;2.13;;;0.73;;
74963;SDS011;63521;51.900;4.748;2022-12-29T16:41:59;1.60;;;0.75;;
74963;SDS011;63521;51.900;4.748;2022-12-29T16:44:29;2.00;;;0.65;;
74963;SDS011;63521;51.900;4.748;2022-12-29T16:47:15;2.78;;;0.60;;
74963;SDS011;63521;51.900;4.748;2022-12-29T16:49:45;0.90;;;0.52;;
74963;SDS011;63521;51.900;4.748;2022-12-29T16:52:23;2.50;;;0.75;;
74963;SDS011;63521;51.900;4.748;2022-12-29T16:54:56;1.55;;;0.47;;
74963;SDS011;63521;51.900;4.748;2022-12-29T16:57:27;2.60;;;0.60;;
74963;SDS011;63521;51.900;4.748;2022-12-29T16:59:54;2.78;;;0.73;;
74963;SDS011;63521;51.900;4.748;2022-12-29T17:02:23;5.68;;;0.65;;
74963;SDS011;63521;51.900;4.748;2022-12-29T17:04:49;1.30;;;0.55;;
74963;SDS011;63521;51.900;4.748;2022-12-29T17:07:16;1.35;;;0.50;;
74963;SDS011;63521;51.900;4.748;2022-12-29T17:09:43;2.47;;;0.80;;
74963;SDS011;63521;51.900;4.748;2022-12-29T17:12:08;2.80;;;1.00;;
74963;SDS011;63521;51.900;4.748;2022-12-29T17:14:45;3.22;;;0.75;;
74963;SDS011;63521;51.900;4.748;2022-12-29T17:19:57;2.20;;;0.50;;
74963;SDS011;63521;51.900;4.748;2022-12-29T17:22:28;2.80;;;0.50;;
74963;SDS011;63521;51.900;4.748;2022-12-29T17:24:54;1.90;;;0.80;;
74963;SDS011;63521;51.900;4.748;2022-12-29T17:28:04;2.80;;;0.73;;
74963;SDS011;63521;51.900;4.748;2022-12-29T17:30:15;2.38;;;0.70;;
74963;SDS011;63521;51.900;4.748;2022-12-29T17:32:43;0.95;;;0.70;;
74963;SDS011;63521;51.900;4.748;2022-12-29T17:35:13;2.85;;;0.57;;
74963;SDS011;63521;51.900;4.748;2022-12-29T17:37:39;1.02;;;0.47;;
74963;SDS011;63521;51.900;4.748;2022-12-29T17:40:09;0.82;;;0.50;;
74963;SDS011;63521;51.900;4.748;2022-12-29T17:42:40;1.80;;;0.43;;